createdAt,value
2023-08-16T00:01:38.323Z,100337.31
2023-08-16T00:04:06.453Z,100330.69
2023-08-16T00:06:34.503Z,100332.13
2023-08-16T00:09:02.758Z,100336.81
2023-08-16T00:11:30.417Z,100341.53
2023-08-16T00:13:58.018Z,100336.94
2023-08-16T00:16:25.699Z,100335.75
2023-08-16T00:18:53.727Z,100331.41
2023-08-16T00:21:21.356Z,100335.63
2023-08-16T00:23:49.019Z,100328.25
2023-08-16T00:26:16.733Z,100340.22
2023-08-16T00:28:44.397Z,100335.13
2023-08-16T00:31:12.563Z,100333.97
2023-08-16T00:33:40.394Z,100336.72
2023-08-16T00:36:08.878Z,100337.31
2023-08-16T00:38:36.434Z,100333.28
2023-08-16T00:41:03.991Z,100330.63
2023-08-16T00:43:31.749Z,100340.66
2023-08-16T00:45:59.808Z,100335.19
2023-08-16T00:48:31.749Z,100338.38
2023-08-16T00:51:00.434Z,100339.00
2023-08-16T00:53:30.864Z,100345.94
2023-08-16T00:56:02.869Z,100342.41
2023-08-16T00:58:31.053Z,100345.16
2023-08-16T01:00:59.337Z,100347.38
2023-08-16T01:03:27.443Z,100344.13
2023-08-16T01:05:58.212Z,100342.97
2023-08-16T01:08:26.162Z,100344.69
2023-08-16T01:11:17.643Z,100350.25
2023-08-16T01:14:09.161Z,100350.25
2023-08-16T01:16:40.192Z,100348.78
2023-08-16T01:19:11.826Z,100344.81
2023-08-16T01:21:52.195Z,100337.75
2023-08-16T01:24:25.090Z,100337.75
2023-08-16T01:26:54.437Z,100340.16
2023-08-16T01:29:23.289Z,100343.50
2023-08-16T01:31:51.450Z,100338.84
2023-08-16T01:34:19.068Z,100344.09
2023-08-16T01:36:46.663Z,100342.53
2023-08-16T01:39:14.194Z,100346.03
2023-08-16T01:41:51.125Z,100346.03
2023-08-16T01:44:20.129Z,100349.91
2023-08-16T01:46:48.600Z,100350.63
2023-08-16T01:49:16.750Z,100350.63
2023-08-16T01:51:45.496Z,100343.94
2023-08-16T01:54:13.326Z,100333.28
2023-08-16T01:56:40.981Z,100325.91
2023-08-16T01:59:08.719Z,100328.19
2023-08-16T02:01:36.387Z,100315.25
2023-08-16T02:04:04.242Z,100319.06
2023-08-16T02:06:31.905Z,100320.59
2023-08-16T02:08:59.523Z,100318.25
2023-08-16T02:11:27.158Z,100315.94
2023-08-16T02:13:54.692Z,100312.34
2023-08-16T02:16:22.396Z,100313.16
2023-08-16T02:18:50.203Z,100315.34
2023-08-16T02:21:17.925Z,100308.66
2023-08-16T02:23:45.619Z,100300.81
2023-08-16T02:26:13.155Z,100307.78
2023-08-16T02:28:40.696Z,100302.41
2023-08-16T02:31:08.728Z,100301.53
2023-08-16T02:33:36.478Z,100300.63
2023-08-16T02:36:04.575Z,100302.78
2023-08-16T02:38:32.282Z,100304.53
2023-08-16T02:40:59.794Z,100311.25
2023-08-16T02:43:27.595Z,100318.53
2023-08-16T02:45:55.096Z,100325.13
2023-08-16T02:48:22.950Z,100320.38
2023-08-16T02:50:50.940Z,100315.91
2023-08-16T02:53:18.678Z,100315.47
2023-08-16T02:55:46.445Z,100307.28
2023-08-16T02:58:14.226Z,100307.63
2023-08-16T03:00:41.838Z,100319.75
2023-08-16T03:03:18.517Z,100327.59
2023-08-16T03:05:49.122Z,100341.50
2023-08-16T03:08:21.005Z,100345.66
2023-08-16T03:10:53.946Z,100330.72
2023-08-16T03:13:25.367Z,100309.78
2023-08-16T03:16:05.652Z,100312.97
2023-08-16T03:18:46.483Z,100329.31
2023-08-16T03:21:26.627Z,100333.47
2023-08-16T03:23:54.897Z,100327.44
2023-08-16T03:26:28.915Z,100298.75
2023-08-16T03:29:01.535Z,100336.88
2023-08-16T03:31:35.979Z,100344.09
2023-08-16T03:34:05.108Z,100328.72
2023-08-16T03:36:39.777Z,100356.28
2023-08-16T03:39:14.711Z,100366.59
2023-08-16T03:41:48.969Z,100335.31
2023-08-16T03:44:23.194Z,100354.81
2023-08-16T03:47:00.639Z,100373.63
2023-08-16T03:49:46.828Z,100377.94
2023-08-16T03:52:28.261Z,100353.53
2023-08-16T03:55:03.119Z,100345.47
2023-08-16T03:57:37.860Z,100348.91
2023-08-16T04:00:11.254Z,100346.09
2023-08-16T04:02:44.852Z,100333.13
2023-08-16T04:05:16.685Z,100336.94
2023-08-16T04:07:48.437Z,100344.22
2023-08-16T04:10:22.656Z,100359.63
2023-08-16T04:12:53.605Z,100355.84
2023-08-16T04:15:25.746Z,100353.50
2023-08-16T04:17:55.341Z,100360.03
2023-08-16T04:20:23.550Z,100378.34
2023-08-16T04:22:51.685Z,100408.00
2023-08-16T04:25:20.963Z,100387.38
2023-08-16T04:27:52.291Z,100349.97
2023-08-16T04:30:25.894Z,100346.03
2023-08-16T04:32:56.725Z,100350.59
2023-08-16T04:35:31.338Z,100370.31
2023-08-16T04:38:05.739Z,100373.25
2023-08-16T04:40:39.804Z,100381.66
2023-08-16T04:43:11.188Z,100374.78
2023-08-16T04:45:38.551Z,100391.31
2023-08-16T04:48:15.377Z,100377.47
2023-08-16T04:50:53.382Z,100364.09
2023-08-16T04:53:28.616Z,100358.03
2023-08-16T04:56:00.856Z,100363.72
2023-08-16T04:58:31.469Z,100365.16
2023-08-16T05:01:08.258Z,100355.91
2023-08-16T05:03:42.393Z,100356.00
2023-08-16T05:06:13.738Z,100354.31
2023-08-16T05:08:46.202Z,100353.53
2023-08-16T05:11:21.656Z,100355.47
2023-08-16T05:13:53.047Z,100353.19
2023-08-16T05:16:24.808Z,100353.97
2023-08-16T05:19:02.257Z,100360.31
2023-08-16T05:21:32.824Z,100354.13
2023-08-16T05:24:19.838Z,100356.16
2023-08-16T05:26:58.736Z,100358.63
2023-08-16T05:29:32.914Z,100358.78
2023-08-16T05:32:13.202Z,100358.28
2023-08-16T05:34:47.344Z,100356.06
2023-08-16T05:37:18.234Z,100357.09
2023-08-16T05:39:54.066Z,100358.84
2023-08-16T05:42:30.597Z,100355.66
2023-08-16T05:45:02.035Z,100363.78
2023-08-16T05:47:33.063Z,100363.97
2023-08-16T05:50:06.756Z,100369.72
2023-08-16T05:52:38.219Z,100359.00
2023-08-16T05:55:06.150Z,100365.06
2023-08-16T05:57:36.399Z,100366.03
2023-08-16T06:00:06.853Z,100367.19
2023-08-16T06:02:41.540Z,100368.91
2023-08-16T06:05:09.918Z,100362.94
2023-08-16T06:07:41.044Z,100374.03
2023-08-16T06:10:24.623Z,100390.41
2023-08-16T06:12:58.554Z,100383.97
2023-08-16T06:15:29.236Z,100382.38
2023-08-16T06:18:00.644Z,100388.13
2023-08-16T06:20:31.871Z,100380.22
2023-08-16T06:23:02.459Z,100371.50
2023-08-16T06:25:36.224Z,100367.72
2023-08-16T06:28:04.784Z,100362.28
2023-08-16T06:30:41.236Z,100354.84
2023-08-16T06:33:09.168Z,100361.38
2023-08-16T06:35:43.026Z,100365.63
2023-08-16T06:38:13.586Z,100370.91
2023-08-16T06:40:41.275Z,100374.63
2023-08-16T06:43:08.911Z,100381.47
2023-08-16T06:45:36.400Z,100379.63
2023-08-16T06:48:04.564Z,100380.69
2023-08-16T06:50:32.312Z,100382.88
2023-08-16T06:53:00.295Z,100386.78
2023-08-16T06:55:28.025Z,100385.75
2023-08-16T06:57:55.714Z,100394.50
2023-08-16T07:00:26.080Z,100396.16
2023-08-16T07:02:53.831Z,100394.09
2023-08-16T07:05:24.515Z,100385.47
2023-08-16T07:07:51.976Z,100384.25
2023-08-16T07:10:20.146Z,100379.84
2023-08-16T07:12:47.901Z,100376.75
2023-08-16T07:15:15.705Z,100391.31
2023-08-16T07:17:43.489Z,100377.84
2023-08-16T07:20:11.626Z,100387.59
2023-08-16T07:22:39.629Z,100378.53
2023-08-16T07:25:10.887Z,100376.09
2023-08-16T07:27:38.321Z,100385.72
2023-08-16T07:30:09.339Z,100375.88
2023-08-16T07:32:42.879Z,100379.63
2023-08-16T07:35:10.918Z,100385.44
2023-08-16T07:37:44.820Z,100375.16
2023-08-16T07:40:18.178Z,100380.91
2023-08-16T07:42:45.722Z,100386.94
2023-08-16T07:45:15.388Z,100379.63
2023-08-16T07:47:43.161Z,100381.72
2023-08-16T07:50:17.581Z,100380.91
2023-08-16T07:52:48.559Z,100380.22
2023-08-16T07:55:20.280Z,100382.97
2023-08-16T07:57:54.844Z,100380.22
2023-08-16T08:00:28.538Z,100380.91
2023-08-16T08:03:06.472Z,100381.34
2023-08-16T08:05:37.491Z,100376.16
2023-08-16T08:08:09.838Z,100367.16
2023-08-16T08:10:46.020Z,100368.13
2023-08-16T08:13:14.779Z,100369.03
2023-08-16T08:15:52.135Z,100373.75
2023-08-16T08:18:23.647Z,100365.56
2023-08-16T08:21:00.214Z,100368.09
2023-08-16T08:23:34.251Z,100374.06
2023-08-16T08:26:04.525Z,100366.00
2023-08-16T08:28:41.009Z,100357.59
2023-08-16T08:31:14.644Z,100363.84
2023-08-16T08:33:49.238Z,100371.53
2023-08-16T08:36:20.328Z,100359.56
2023-08-16T08:38:51.704Z,100358.06
2023-08-16T08:41:45.940Z,100356.22
2023-08-16T08:44:21.596Z,100360.75
2023-08-16T08:47:00.317Z,100358.69
2023-08-16T08:49:42.149Z,100361.97
2023-08-16T08:52:16.872Z,100365.06
2023-08-16T08:54:51.092Z,100365.78
2023-08-16T08:57:20.243Z,100362.97
2023-08-16T08:59:52.320Z,100368.47
2023-08-16T09:02:27.391Z,100362.53
2023-08-16T09:05:03.033Z,100365.88
2023-08-16T09:07:41.565Z,100359.47
2023-08-16T09:10:10.461Z,100367.34
2023-08-16T09:12:42.236Z,100367.25
2023-08-16T09:15:18.172Z,100372.97
2023-08-16T09:17:49.386Z,100375.63
2023-08-16T09:20:17.515Z,100373.19
2023-08-16T09:22:49.045Z,100384.88
2023-08-16T09:25:20.330Z,100384.22
2023-08-16T09:27:54.629Z,100388.38
2023-08-16T09:30:22.615Z,100373.31
2023-08-16T09:32:55.383Z,100375.56
2023-08-16T09:35:54.181Z,100358.28
2023-08-16T09:41:00.206Z,100355.88
2023-08-16T09:43:33.309Z,100357.03
2023-08-16T09:46:07.683Z,100370.75
2023-08-16T09:51:20.036Z,100370.25
2023-08-16T09:53:51.952Z,100361.81
2023-08-16T09:59:03.957Z,100364.28
2023-08-16T10:01:52.823Z,100369.06
2023-08-16T10:09:43.585Z,100370.56
2023-08-16T10:12:18.447Z,100376.03
2023-08-16T10:14:52.896Z,100369.75
2023-08-16T10:17:25.719Z,100360.31
2023-08-16T10:20:00.092Z,100373.69
2023-08-16T10:22:45.984Z,100363.09
2023-08-16T10:25:20.544Z,100362.75
2023-08-16T10:27:48.765Z,100362.03
2023-08-16T10:30:29.665Z,100362.44
2023-08-16T10:33:05.048Z,100368.28
2023-08-16T10:35:35.909Z,100359.63
2023-08-16T10:38:09.373Z,100358.03
2023-08-16T10:40:41.117Z,100365.91
2023-08-16T10:43:15.870Z,100371.38
2023-08-16T10:48:31.987Z,100357.94
2023-08-16T10:51:03.711Z,100348.91
2023-08-16T10:53:35.938Z,100348.53
2023-08-16T10:56:10.366Z,100351.69
2023-08-16T10:58:50.951Z,100346.94
2023-08-16T11:01:31.254Z,100350.81
2023-08-16T11:04:02.651Z,100359.13
2023-08-16T11:06:34.326Z,100360.31
2023-08-16T11:09:09.191Z,100360.38
2023-08-16T11:11:49.744Z,100345.41
2023-08-16T11:14:21.748Z,100348.53
2023-08-16T11:16:58.212Z,100346.19
2023-08-16T11:19:29.886Z,100342.22
2023-08-16T11:22:01.844Z,100332.78
2023-08-16T11:24:32.998Z,100337.50
2023-08-16T11:27:06.034Z,100338.75
2023-08-16T11:29:37.016Z,100334.84
2023-08-16T11:32:12.318Z,100334.13
2023-08-16T11:34:44.199Z,100324.28
2023-08-16T11:37:21.043Z,100323.53
2023-08-16T11:40:02.128Z,100319.97
2023-08-16T11:42:33.147Z,100318.88
2023-08-16T11:45:21.106Z,100318.53
2023-08-16T11:47:55.205Z,100307.56
2023-08-16T11:50:26.862Z,100305.63
2023-08-16T11:53:04.486Z,100305.63
2023-08-16T11:55:41.002Z,100305.63
2023-08-16T11:58:14.700Z,100302.88
2023-08-16T12:00:43.218Z,100301.69
2023-08-16T12:03:21.218Z,100309.94
2023-08-16T12:06:05.812Z,100298.56
2023-08-16T12:08:36.895Z,100305.25
2023-08-16T12:11:08.967Z,100299.38
2023-08-16T12:13:40.276Z,100290.31
2023-08-16T12:16:20.237Z,100288.34
2023-08-16T12:18:51.155Z,100289.94
2023-08-16T12:21:28.723Z,100275.41
2023-08-16T12:23:59.844Z,100276.56
2023-08-16T12:26:33.812Z,100263.59
2023-08-16T12:29:04.501Z,100260.84
2023-08-16T12:31:35.956Z,100262.03
2023-08-16T12:34:05.870Z,100256.13
2023-08-16T12:36:42.962Z,100256.91
2023-08-16T12:39:15.983Z,100263.22
2023-08-16T12:41:46.350Z,100263.97
2023-08-16T12:44:20.189Z,100261.22
2023-08-16T12:46:51.017Z,100261.22
2023-08-16T12:49:22.369Z,100260.81
2023-08-16T12:51:58.405Z,100256.13
2023-08-16T12:54:26.200Z,100263.19
2023-08-16T12:57:06.087Z,100261.19
2023-08-16T12:59:51.680Z,100251.00
2023-08-16T13:02:36.709Z,100254.53
2023-08-16T13:05:12.731Z,100250.59
2023-08-16T13:10:24.957Z,100249.03
2023-08-16T13:15:39.919Z,100251.38
2023-08-16T13:20:45.473Z,100248.22
2023-08-16T13:23:33.995Z,100247.06
2023-08-16T13:26:14.391Z,100243.13
2023-08-16T13:28:49.521Z,100242.75
2023-08-16T13:32:00.623Z,100240.75
2023-08-16T13:37:24.398Z,100228.59
2023-08-16T13:47:46.160Z,100227.81
2023-08-16T13:50:17.629Z,100232.50
2023-08-16T13:52:53.281Z,100225.84
2023-08-16T13:55:27.036Z,100219.16
2023-08-16T13:58:00.506Z,100209.72
2023-08-16T14:00:33.289Z,100211.28
2023-08-16T14:03:05.851Z,100201.88
2023-08-16T14:05:41.056Z,100201.09
2023-08-16T14:08:12.292Z,100205.78
2023-08-16T14:11:03.718Z,100195.56
2023-08-16T14:13:37.956Z,100200.31
2023-08-16T14:16:15.155Z,100197.94
2023-08-16T14:18:43.485Z,100204.63
2023-08-16T14:21:14.926Z,100194.78
2023-08-16T14:23:47.374Z,100196.38
2023-08-16T14:26:21.196Z,100196.38
2023-08-16T14:28:57.399Z,100201.09
2023-08-16T14:31:34.379Z,100204.22
2023-08-16T14:34:09.119Z,100200.31
2023-08-16T14:36:39.805Z,100200.28
2023-08-16T14:39:10.443Z,100190.47
2023-08-16T14:41:38.995Z,100186.53
2023-08-16T14:44:07.623Z,100195.97
2023-08-16T14:46:46.646Z,100194.00
2023-08-16T14:49:20.573Z,100190.81
2023-08-16T14:51:54.356Z,100194.38
2023-08-16T14:54:25.595Z,100205.78
2023-08-16T14:56:57.887Z,100205.78
2023-08-16T14:59:29.220Z,100205.00
2023-08-16T15:02:04.846Z,100197.13
2023-08-16T15:04:41.108Z,100205.78
2023-08-16T15:07:12.735Z,100203.41
2023-08-16T15:09:49.962Z,100203.44
2023-08-16T15:12:21.575Z,100202.66
2023-08-16T15:14:53.673Z,100201.88
2023-08-16T15:17:28.191Z,100205.00
2023-08-16T15:19:59.650Z,100203.84
2023-08-16T15:22:31.171Z,100204.22
2023-08-16T15:25:02.150Z,100201.06
2023-08-16T15:27:36.197Z,100199.13
2023-08-16T15:30:07.013Z,100194.78
2023-08-16T15:32:41.511Z,100192.44
2023-08-16T15:35:16.468Z,100199.50
2023-08-16T15:37:44.793Z,100196.34
2023-08-16T15:40:16.680Z,100200.28
2023-08-16T15:42:53.587Z,100196.38
2023-08-16T15:45:24.516Z,100197.56
2023-08-16T15:47:59.752Z,100197.97
2023-08-16T15:50:33.057Z,100199.53
2023-08-16T15:53:05.526Z,100193.19
2023-08-16T15:55:36.818Z,100194.78
2023-08-16T15:58:09.049Z,100192.81
2023-08-16T16:00:43.728Z,100198.31
2023-08-16T16:03:14.126Z,100198.69
2023-08-16T16:05:50.811Z,100189.28
2023-08-16T16:08:19.156Z,100190.06
2023-08-16T16:10:49.722Z,100194.78
2023-08-16T16:13:24.063Z,100192.44
2023-08-16T16:15:57.902Z,100192.81
2023-08-16T16:18:32.072Z,100189.28
2023-08-16T16:21:02.987Z,100179.06
2023-08-16T16:23:36.977Z,100178.28
2023-08-16T16:26:20.236Z,100187.72
2023-08-16T16:28:51.201Z,100182.97
2023-08-16T16:31:19.775Z,100187.69
2023-08-16T16:33:50.789Z,100195.53
2023-08-16T16:36:28.721Z,100200.22
2023-08-16T16:39:04.275Z,100200.97
2023-08-16T16:41:36.316Z,100201.75
2023-08-16T16:44:04.718Z,100205.28
2023-08-16T16:46:39.152Z,100214.31
2023-08-16T16:49:09.495Z,100203.34
2023-08-16T16:51:45.744Z,100213.94
2023-08-16T16:54:16.564Z,100210.41
2023-08-16T16:56:46.999Z,100209.63
2023-08-16T16:59:22.824Z,100208.81
2023-08-16T17:01:58.036Z,100205.69
2023-08-16T17:04:34.396Z,100208.38
2023-08-16T17:07:08.222Z,100212.25
2023-08-16T17:09:42.979Z,100204.38
2023-08-16T17:12:20.412Z,100212.19
2023-08-16T17:14:51.867Z,100208.63
2023-08-16T17:17:27.479Z,100209.38
2023-08-16T17:19:58.738Z,100202.31
2023-08-16T17:22:36.132Z,100200.72
2023-08-16T17:25:12.517Z,100204.22
2023-08-16T17:27:43.479Z,100203.00
2023-08-16T17:30:13.946Z,100206.13
2023-08-16T17:32:48.177Z,100208.44
2023-08-16T17:35:15.845Z,100203.66
2023-08-16T17:37:46.222Z,100205.97
2023-08-16T17:40:23.711Z,100209.81
2023-08-16T17:42:52.117Z,100204.25
2023-08-16T17:45:22.494Z,100209.72
2023-08-16T17:47:52.711Z,100207.72
2023-08-16T17:50:20.186Z,100213.94
2023-08-16T17:52:51.429Z,100219.78
2023-08-16T17:55:21.980Z,100225.63
2023-08-16T17:57:57.065Z,100227.94
2023-08-16T18:00:24.997Z,100224.41
2023-08-16T18:02:55.428Z,100220.88
2023-08-16T18:05:26.448Z,100226.28
2023-08-16T18:07:53.857Z,100222.25
2023-08-16T18:10:21.397Z,100221.88
2023-08-16T18:12:48.878Z,100226.09
2023-08-16T18:15:16.591Z,100225.66
2023-08-16T18:17:44.212Z,100224.84
2023-08-16T18:20:12.561Z,100224.84
2023-08-16T18:22:46.049Z,100222.13
2023-08-16T18:25:20.670Z,100226.41
2023-08-16T18:27:48.134Z,100224.13
2023-08-16T18:30:20.762Z,100222.91
2023-08-16T18:32:50.943Z,100214.25
2023-08-16T18:35:19.603Z,100220.88
2023-08-16T18:37:56.663Z,100222.41
2023-08-16T18:40:30.058Z,100223.19
2023-08-16T18:43:03.684Z,100220.88
2023-08-16T18:45:32.584Z,100225.94
2023-08-16T18:48:06.188Z,100227.00
2023-08-16T18:50:34.363Z,100221.50
2023-08-16T18:53:02.248Z,100224.25
2023-08-16T18:55:30.734Z,100218.41
2023-08-16T18:58:01.091Z,100223.94
2023-08-16T19:00:32.041Z,100230.97
2023-08-16T19:02:59.615Z,100230.84
2023-08-16T19:05:34.211Z,100235.13
2023-08-16T19:08:07.559Z,100240.94
2023-08-16T19:10:41.501Z,100233.91
2023-08-16T19:13:14.708Z,100233.81
2023-08-16T19:15:45.708Z,100234.56
2023-08-16T19:18:13.639Z,100234.25
2023-08-16T19:20:41.307Z,100247.13
2023-08-16T19:23:10.116Z,100237.31
2023-08-16T19:25:45.648Z,100241.63
2023-08-16T19:28:16.392Z,100248.69
2023-08-16T19:30:44.658Z,100241.59
2023-08-16T19:33:20.591Z,100240.47
2023-08-16T19:35:52.174Z,100252.97
2023-08-16T19:38:25.439Z,100254.41
2023-08-16T19:40:58.840Z,100257.78
2023-08-16T19:43:31.861Z,100257.66
2023-08-16T19:45:59.417Z,100257.66
2023-08-16T19:48:33.265Z,100255.34
2023-08-16T19:51:07.205Z,100254.19
2023-08-16T19:53:37.738Z,100250.94
2023-08-16T19:56:08.777Z,100250.53
2023-08-16T19:58:37.540Z,100253.66
2023-08-16T20:01:07.217Z,100250.22
2023-08-16T20:03:38.418Z,100248.72
2023-08-16T20:06:05.981Z,100229.25
2023-08-16T20:08:33.374Z,100238.00
2023-08-16T20:11:00.917Z,100229.00
2023-08-16T20:13:28.478Z,100233.00
2023-08-16T20:15:55.786Z,100231.50
2023-08-16T20:18:23.407Z,100233.91
2023-08-16T20:20:53.991Z,100228.81
2023-08-16T20:23:21.254Z,100224.19
2023-08-16T20:25:48.828Z,100214.00
2023-08-16T20:28:16.222Z,100226.19
2023-08-16T20:30:46.308Z,100223.13
2023-08-16T20:33:16.450Z,100212.06
2023-08-16T20:35:44.055Z,100219.91
2023-08-16T20:38:11.485Z,100218.31
2023-08-16T20:40:38.899Z,100215.59
2023-08-16T20:43:06.464Z,100218.31
2023-08-16T20:45:33.883Z,100212.41
2023-08-16T20:48:01.389Z,100216.31
2023-08-16T20:50:28.899Z,100213.13
2023-08-16T20:52:56.248Z,100215.97
2023-08-16T20:55:25.738Z,100210.47
2023-08-16T20:57:56.760Z,100210.47
2023-08-16T21:00:28.282Z,100213.53
2023-08-16T21:02:55.816Z,100219.81
2023-08-16T21:05:23.756Z,100220.13
2023-08-16T21:07:51.202Z,100219.84
2023-08-16T21:10:18.710Z,100219.38
2023-08-16T21:12:46.166Z,100218.13
2023-08-16T21:15:13.616Z,100215.31
2023-08-16T21:17:41.099Z,100217.53
2023-08-16T21:20:08.988Z,100206.88
2023-08-16T21:22:36.374Z,100212.81
2023-08-16T21:25:04.362Z,100224.06
2023-08-16T21:27:32.302Z,100218.50
2023-08-16T21:29:59.828Z,100229.78
2023-08-16T21:32:27.373Z,100226.94
2023-08-16T21:34:54.716Z,100225.78
2023-08-16T21:37:27.542Z,100227.34
2023-08-16T21:40:00.834Z,100228.53
2023-08-16T21:42:31.782Z,100232.81
2023-08-16T21:45:00.859Z,100237.16
2023-08-16T21:47:28.759Z,100236.75
2023-08-16T21:49:56.776Z,100248.00
2023-08-16T21:52:24.532Z,100244.84
2023-08-16T21:54:55.206Z,100249.91
2023-08-16T21:57:24.444Z,100250.31
2023-08-16T21:59:56.049Z,100250.25
2023-08-16T22:02:23.768Z,100259.69
2023-08-16T22:04:51.546Z,100257.31
2023-08-16T22:07:19.188Z,100265.09
2023-08-16T22:09:46.891Z,100258.78
2023-08-16T22:12:14.619Z,100265.03
2023-08-16T22:14:42.051Z,100268.16
2023-08-16T22:17:10.415Z,100268.13
2023-08-16T22:19:38.803Z,100257.91
2023-08-16T22:22:06.378Z,100265.38
2023-08-16T22:24:33.799Z,100266.41
2023-08-16T22:27:01.821Z,100268.31
2023-08-16T22:29:31.367Z,100267.16
2023-08-16T22:31:59.199Z,100267.09
2023-08-16T22:34:26.776Z,100272.53
2023-08-16T22:36:54.370Z,100266.59
2023-08-16T22:39:22.020Z,100268.41
2023-08-16T22:41:49.670Z,100264.47
2023-08-16T22:44:17.306Z,100275.72
2023-08-16T22:46:50.486Z,100272.13
2023-08-16T22:49:18.129Z,100264.28
2023-08-16T22:51:48.846Z,100266.97
2023-08-16T22:54:16.373Z,100269.59
2023-08-16T22:56:43.995Z,100264.00
2023-08-16T22:59:11.574Z,100258.53
2023-08-16T23:01:39.191Z,100262.28
2023-08-16T23:04:09.510Z,100269.19
2023-08-16T23:06:37.112Z,100263.72
2023-08-16T23:09:05.217Z,100258.06
2023-08-16T23:11:32.923Z,100259.59
2023-08-16T23:14:00.886Z,100260.31
2023-08-16T23:16:31.648Z,100264.03
2023-08-16T23:19:00.535Z,100263.19
2023-08-16T23:21:28.501Z,100267.06
2023-08-16T23:23:56.135Z,100267.78
2023-08-16T23:26:23.974Z,100278.16
2023-08-16T23:28:51.534Z,100273.03
2023-08-16T23:31:19.363Z,100277.69
2023-08-16T23:33:46.862Z,100275.28
2023-08-16T23:36:14.332Z,100273.63
2023-08-16T23:38:41.876Z,100268.81
2023-08-16T23:41:09.324Z,100268.38
2023-08-16T23:43:36.939Z,100269.78
2023-08-16T23:46:05.627Z,100271.38
2023-08-16T23:48:33.367Z,100268.50
2023-08-16T23:51:00.927Z,100271.50
2023-08-16T23:53:28.484Z,100273.09
2023-08-16T23:55:55.964Z,100272.66
2023-08-16T23:58:23.472Z,100279.63
